createdAt,value
2019-01-21T00:01:34.186Z,96.00
2019-01-21T00:06:55.483Z,80.03
2019-01-21T00:12:07.483Z,76.17
2019-01-21T00:17:28.639Z,87.37
2019-01-21T00:22:49.696Z,100.50
2019-01-21T00:28:10.290Z,73.40
2019-01-21T00:33:31.633Z,81.97
2019-01-21T00:38:34.542Z,66.00
2019-01-21T00:43:41.263Z,97.67
2019-01-21T00:49:02.530Z,101.53
2019-01-21T00:54:08.495Z,118.10
2019-01-21T00:59:14.657Z,86.10
2019-01-21T01:04:26.400Z,124.87
2019-01-21T01:09:47.580Z,107.37
2019-01-21T01:14:53.775Z,85.03
2019-01-21T01:20:00.384Z,83.30
2019-01-21T01:25:05.274Z,76.73
2019-01-21T01:30:18.774Z,91.40
2019-01-21T01:35:24.479Z,97.83
2019-01-21T01:40:36.791Z,67.10
2019-01-21T01:45:44.591Z,82.33
2019-01-21T01:50:48.019Z,94.97
2019-01-21T01:55:54.754Z,77.70
2019-01-21T02:01:06.907Z,75.07
2019-01-21T02:06:14.913Z,97.30
2019-01-21T02:11:22.611Z,69.47
2019-01-21T02:16:31.383Z,87.10
2019-01-21T02:21:40.303Z,65.53
2019-01-21T02:27:08.770Z,66.90
2019-01-21T02:32:37.264Z,78.47
2019-01-21T02:38:40.238Z,63.47
2019-01-21T02:44:36.635Z,67.60
2019-01-21T02:50:11.607Z,55.90
2019-01-21T02:56:04.103Z,62.53
2019-01-21T03:01:56.152Z,40.97
2019-01-21T03:07:24.920Z,46.77
2019-01-21T03:12:50.146Z,38.07
2019-01-21T03:18:36.100Z,53.03
2019-01-21T03:24:30.810Z,41.20
2019-01-21T03:30:22.792Z,37.50
2019-01-21T03:36:04.418Z,52.80
2019-01-21T03:41:25.584Z,53.57
2019-01-21T03:46:57.781Z,35.27
2019-01-21T03:52:41.270Z,48.53
2019-01-21T03:58:31.765Z,39.03
2019-01-21T04:04:21.625Z,24.13
2019-01-21T04:10:24.756Z,43.83
2019-01-21T04:16:19.045Z,33.17
2019-01-21T04:21:59.881Z,28.93
2019-01-21T04:28:27.138Z,32.23
2019-01-21T04:33:57.062Z,39.53
2019-01-21T04:39:29.301Z,43.07
2019-01-21T04:45:12.821Z,39.77
2019-01-21T04:58:03.024Z,37.83
2019-01-21T05:03:25.971Z,26.93
2019-01-21T05:09:04.844Z,23.53
2019-01-21T05:15:06.119Z,30.80
2019-01-21T05:21:13.623Z,35.40
2019-01-21T05:26:42.361Z,17.97
2019-01-21T05:32:17.975Z,23.30
2019-01-21T05:38:05.977Z,38.63
2019-01-21T06:02:31.255Z,25.70
2019-01-21T06:08:32.747Z,32.60
2019-01-21T06:14:39.437Z,40.00
2019-01-21T06:20:32.778Z,31.90
2019-01-21T06:26:13.575Z,36.43
2019-01-21T06:31:45.135Z,40.90
2019-01-21T06:37:11.705Z,54.30
2019-01-21T06:43:03.128Z,31.07
2019-01-21T06:49:04.646Z,32.20
2019-01-21T06:54:31.368Z,35.57
2019-01-21T07:00:02.666Z,51.77
2019-01-21T07:06:10.634Z,36.40
2019-01-21T07:11:50.775Z,42.60
2019-01-21T07:17:30.739Z,15.37
2019-01-21T07:23:14.983Z,31.60
2019-01-21T07:29:08.051Z,38.40
2019-01-21T07:34:46.061Z,35.70
2019-01-21T07:40:14.959Z,42.43
2019-01-21T07:45:51.945Z,39.07
2019-01-21T07:51:51.115Z,35.57
2019-01-21T07:57:18.371Z,28.80
2019-01-21T08:02:48.195Z,40.10
2019-01-21T08:08:25.525Z,45.07
2019-01-21T08:14:10.596Z,44.57
2019-01-21T08:20:00.611Z,48.17
2019-01-21T08:26:18.140Z,33.03
2019-01-21T08:31:33.328Z,41.90
2019-01-21T08:37:09.791Z,45.73
2019-01-21T08:54:58.239Z,48.73
2019-01-21T09:00:42.415Z,47.43
2019-01-21T09:06:26.803Z,49.67
2019-01-21T09:12:10.148Z,87.00
2019-01-21T09:17:43.662Z,67.93
2019-01-21T09:23:37.264Z,63.93
2019-01-21T09:29:12.683Z,59.63
2019-01-21T09:34:59.187Z,52.90
2019-01-21T09:40:31.996Z,50.07
2019-01-21T09:45:59.602Z,56.27
2019-01-21T09:51:06.983Z,35.37
2019-01-21T09:56:30.955Z,31.57
2019-01-21T10:01:38.320Z,38.50
2019-01-21T10:06:45.700Z,33.40
2019-01-21T10:12:55.414Z,37.07
2019-01-21T10:18:18.067Z,29.67
2019-01-21T10:24:19.095Z,32.03
2019-01-21T10:30:43.102Z,36.47
2019-01-21T10:36:35.915Z,31.87
2019-01-21T10:42:03.819Z,37.60
2019-01-21T10:47:32.937Z,43.80
2019-01-21T10:52:52.396Z,30.43
2019-01-21T10:58:26.471Z,40.10
2019-01-21T11:03:59.095Z,33.13
2019-01-21T11:09:29.811Z,34.47
2019-01-21T11:15:06.387Z,31.47
2019-01-21T11:21:13.387Z,42.20
2019-01-21T11:26:59.999Z,30.43
2019-01-21T11:32:37.973Z,36.30
2019-01-21T11:38:25.111Z,40.93
2019-01-21T11:44:04.302Z,39.43
2019-01-21T11:50:02.882Z,33.50
2019-01-21T11:55:50.608Z,29.83
2019-01-21T12:01:42.798Z,31.07
2019-01-21T12:07:09.873Z,20.87
2019-01-21T12:12:43.543Z,28.33
2019-01-21T12:18:51.998Z,36.20
2019-01-21T12:24:25.035Z,28.77
2019-01-21T12:30:26.491Z,27.93
2019-01-21T12:36:23.038Z,27.93
2019-01-21T12:42:15.328Z,31.17
2019-01-21T12:47:30.088Z,31.63
2019-01-21T12:53:32.536Z,32.10
2019-01-21T12:59:19.184Z,34.07
2019-01-21T13:05:14.910Z,41.23
2019-01-21T13:10:52.346Z,42.97
2019-01-21T13:16:53.963Z,33.63
2019-01-21T13:22:44.543Z,25.23
2019-01-21T13:35:10.815Z,34.70
2019-01-21T13:40:39.867Z,30.87
2019-01-21T13:46:32.687Z,36.07
2019-01-21T13:52:18.692Z,29.10
2019-01-21T13:58:35.485Z,30.67
2019-01-21T14:03:57.124Z,28.60
2019-01-21T14:09:49.085Z,34.33
2019-01-21T14:15:41.618Z,27.47
2019-01-21T14:28:08.138Z,26.57
2019-01-21T14:39:40.168Z,23.70
2019-01-21T14:57:37.286Z,25.93
2019-01-21T15:03:17.836Z,28.23
2019-01-21T15:08:55.933Z,28.53
2019-01-21T15:14:14.866Z,30.67
2019-01-21T15:20:04.121Z,27.17
2019-01-21T15:26:03.515Z,24.77
2019-01-21T15:32:00.194Z,27.90
2019-01-21T15:43:51.158Z,30.80
2019-01-21T15:49:26.410Z,37.50
2019-01-21T15:55:07.710Z,26.23
2019-01-21T16:01:06.240Z,32.50
2019-01-21T16:06:27.379Z,35.63
2019-01-21T16:12:10.867Z,32.13
2019-01-21T16:17:52.455Z,37.47
2019-01-21T16:24:07.451Z,26.77
2019-01-21T16:29:34.962Z,20.53
2019-01-21T16:35:33.568Z,31.00
2019-01-21T16:41:13.902Z,23.03
2019-01-21T16:46:26.187Z,28.23
2019-01-21T16:51:47.341Z,26.13
2019-01-21T16:56:50.161Z,16.10
2019-01-21T17:01:53.155Z,21.13
2019-01-21T17:07:15.447Z,29.20
2019-01-21T17:12:18.276Z,47.78
2019-01-21T17:17:22.450Z,28.60
2019-01-21T17:22:43.551Z,30.97
2019-01-21T17:27:57.702Z,33.37
2019-01-21T17:33:18.639Z,31.07
2019-01-21T17:38:38.503Z,27.27
2019-01-21T17:43:49.617Z,34.47
2019-01-21T17:49:11.086Z,38.90
2019-01-21T17:54:35.217Z,40.87
2019-01-21T17:59:55.609Z,30.93
2019-01-21T18:04:58.916Z,35.83
2019-01-21T18:10:22.009Z,35.97
2019-01-21T18:15:30.344Z,34.13
2019-01-21T18:20:33.339Z,29.90
2019-01-21T18:25:54.566Z,38.50
2019-01-21T18:31:02.543Z,33.43
2019-01-21T18:36:15.859Z,31.23
2019-01-21T18:41:20.583Z,35.93
2019-01-21T18:46:33.428Z,23.13
2019-01-21T18:51:36.555Z,38.27
2019-01-21T18:56:39.696Z,34.33
2019-01-21T19:01:44.189Z,35.23
2019-01-21T19:06:48.803Z,47.83
2019-01-21T19:12:00.719Z,43.30
2019-01-21T19:17:22.704Z,48.07
2019-01-21T19:22:30.524Z,52.67
2019-01-21T19:27:35.041Z,49.63
2019-01-21T19:32:48.006Z,50.53
2019-01-21T19:38:09.613Z,50.33
2019-01-21T19:43:22.412Z,41.00
2019-01-21T19:48:25.467Z,54.43
2019-01-21T19:53:46.599Z,44.43
2019-01-21T19:59:51.080Z,22.67
2019-01-21T20:05:04.556Z,42.70
2019-01-21T20:10:27.643Z,53.73
2019-01-21T20:15:38.259Z,60.10
2019-01-21T20:20:59.164Z,41.63
2019-01-21T20:33:24.019Z,24.17
2019-01-21T20:38:46.190Z,36.93
2019-01-21T21:15:17.592Z,44.63
2019-01-21T21:20:20.971Z,54.10
2019-01-21T21:25:42.298Z,32.00
2019-01-21T21:30:45.431Z,36.13
2019-01-21T21:36:06.256Z,37.13
2019-01-21T21:41:12.565Z,39.37
2019-01-21T21:46:16.207Z,34.20
2019-01-21T21:51:19.259Z,37.30
2019-01-21T21:56:27.497Z,32.17
2019-01-21T22:01:40.072Z,33.10
2019-01-21T22:06:42.965Z,27.17
2019-01-21T22:11:49.131Z,36.03
2019-01-21T22:16:57.904Z,37.17
2019-01-21T22:22:19.316Z,38.80
2019-01-21T22:27:22.080Z,32.10
2019-01-21T22:32:43.383Z,27.97
2019-01-21T22:37:47.150Z,34.43
2019-01-21T22:42:50.248Z,33.67
2019-01-21T22:47:55.136Z,39.47
2019-01-21T22:53:16.501Z,42.40
2019-01-21T22:58:24.140Z,36.70
2019-01-21T23:03:29.946Z,32.63
2019-01-21T23:08:42.243Z,39.57
2019-01-21T23:13:45.408Z,39.17
2019-01-21T23:18:50.425Z,37.40
2019-01-21T23:23:54.885Z,40.13
2019-01-21T23:29:02.962Z,38.17
2019-01-21T23:34:07.507Z,34.03
2019-01-21T23:39:11.787Z,33.63
2019-01-21T23:44:14.640Z,38.23
2019-01-21T23:49:19.723Z,39.60
2019-01-21T23:54:41.076Z,38.63
2019-01-21T23:59:46.054Z,29.83
